sensor_id;sensor_type;location;lat;lon;timestamp;P1;durP1;ratioP1;P2;durP2;ratioP2
51872;SDS011;52863;52.504;13.480;2022-07-01T00:00:50;12.40;;;11.20;;
51872;SDS011;52863;52.504;13.480;2022-07-01T00:03:17;13.80;;;12.03;;
51872;SDS011;52863;52.504;13.480;2022-07-01T00:05:44;14.40;;;13.10;;
51872;SDS011;52863;52.504;13.480;2022-07-01T00:08:11;14.23;;;12.40;;
51872;SDS011;52863;52.504;13.480;2022-07-01T00:10:38;14.13;;;12.70;;
51872;SDS011;52863;52.504;13.480;2022-07-01T00:13:05;17.17;;;13.57;;
51872;SDS011;52863;52.504;13.480;2022-07-01T00:15:33;14.67;;;13.27;;
51872;SDS011;52863;52.504;13.480;2022-07-01T00:17:59;15.03;;;13.60;;
51872;SDS011;52863;52.504;13.480;2022-07-01T00:20:26;14.80;;;13.40;;
51872;SDS011;52863;52.504;13.480;2022-07-01T00:22:53;14.17;;;12.93;;
51872;SDS011;52863;52.504;13.480;2022-07-01T00:25:21;14.10;;;12.70;;
51872;SDS011;52863;52.504;13.480;2022-07-01T00:27:48;15.27;;;13.77;;
51872;SDS011;52863;52.504;13.480;2022-07-01T00:30:15;15.67;;;14.13;;
51872;SDS011;52863;52.504;13.480;2022-07-01T00:32:42;15.77;;;14.23;;
51872;SDS011;52863;52.504;13.480;2022-07-01T00:35:09;15.37;;;13.97;;
51872;SDS011;52863;52.504;13.480;2022-07-01T00:37:37;16.20;;;14.60;;
51872;SDS011;52863;52.504;13.480;2022-07-01T00:40:06;16.17;;;14.67;;
51872;SDS011;52863;52.504;13.480;2022-07-01T00:42:36;16.73;;;15.00;;
51872;SDS011;52863;52.504;13.480;2022-07-01T00:45:05;17.07;;;15.47;;
51872;SDS011;52863;52.504;13.480;2022-07-01T00:47:33;16.57;;;14.87;;
51872;SDS011;52863;52.504;13.480;2022-07-01T00:50:01;17.57;;;15.97;;
51872;SDS011;52863;52.504;13.480;2022-07-01T00:52:29;17.77;;;16.07;;
51872;SDS011;52863;52.504;13.480;2022-07-01T00:54:56;18.73;;;16.00;;
51872;SDS011;52863;52.504;13.480;2022-07-01T00:57:23;18.37;;;16.40;;
51872;SDS011;52863;52.504;13.480;2022-07-01T00:59:56;18.30;;;16.50;;
51872;SDS011;52863;52.504;13.480;2022-07-01T01:02:23;18.57;;;16.43;;
51872;SDS011;52863;52.504;13.480;2022-07-01T01:04:50;20.20;;;16.53;;
51872;SDS011;52863;52.504;13.480;2022-07-01T01:07:20;19.00;;;17.20;;
51872;SDS011;52863;52.504;13.480;2022-07-01T01:09:48;18.80;;;16.90;;
51872;SDS011;52863;52.504;13.480;2022-07-01T01:12:14;19.13;;;17.33;;
51872;SDS011;52863;52.504;13.480;2022-07-01T01:14:44;19.93;;;17.73;;
51872;SDS011;52863;52.504;13.480;2022-07-01T01:17:11;18.87;;;17.10;;
51872;SDS011;52863;52.504;13.480;2022-07-01T01:19:38;19.23;;;16.50;;
51872;SDS011;52863;52.504;13.480;2022-07-01T01:22:06;19.73;;;17.77;;
51872;SDS011;52863;52.504;13.480;2022-07-01T01:24:32;19.63;;;17.77;;
51872;SDS011;52863;52.504;13.480;2022-07-01T01:27:00;20.20;;;18.10;;
51872;SDS011;52863;52.504;13.480;2022-07-01T01:29:27;19.90;;;18.00;;
51872;SDS011;52863;52.504;13.480;2022-07-01T01:31:54;21.67;;;19.20;;
51872;SDS011;52863;52.504;13.480;2022-07-01T01:34:21;19.80;;;17.90;;
51872;SDS011;52863;52.504;13.480;2022-07-01T01:36:49;20.07;;;17.97;;
51872;SDS011;52863;52.504;13.480;2022-07-01T01:39:17;21.03;;;18.53;;
51872;SDS011;52863;52.504;13.480;2022-07-01T01:41:45;21.90;;;19.80;;
51872;SDS011;52863;52.504;13.480;2022-07-01T01:44:12;19.67;;;17.83;;
51872;SDS011;52863;52.504;13.480;2022-07-01T01:46:39;20.90;;;18.80;;
51872;SDS011;52863;52.504;13.480;2022-07-01T01:49:07;21.83;;;19.50;;
51872;SDS011;52863;52.504;13.480;2022-07-01T01:51:34;22.67;;;20.30;;
51872;SDS011;52863;52.504;13.480;2022-07-01T01:54:01;22.10;;;20.10;;
51872;SDS011;52863;52.504;13.480;2022-07-01T01:56:29;21.97;;;19.70;;
51872;SDS011;52863;52.504;13.480;2022-07-01T01:58:56;23.10;;;20.80;;
51872;SDS011;52863;52.504;13.480;2022-07-01T02:01:23;23.20;;;20.97;;
51872;SDS011;52863;52.504;13.480;2022-07-01T02:03:50;23.30;;;21.07;;
51872;SDS011;52863;52.504;13.480;2022-07-01T02:06:19;23.63;;;21.13;;
51872;SDS011;52863;52.504;13.480;2022-07-01T02:08:46;23.17;;;20.83;;
51872;SDS011;52863;52.504;13.480;2022-07-01T02:11:22;23.90;;;21.40;;
51872;SDS011;52863;52.504;13.480;2022-07-01T02:13:50;24.30;;;21.80;;
51872;SDS011;52863;52.504;13.480;2022-07-01T02:16:17;23.90;;;21.43;;
51872;SDS011;52863;52.504;13.480;2022-07-01T02:18:44;24.83;;;22.33;;
51872;SDS011;52863;52.504;13.480;2022-07-01T02:21:11;24.83;;;22.33;;
51872;SDS011;52863;52.504;13.480;2022-07-01T02:23:38;23.87;;;21.33;;
51872;SDS011;52863;52.504;13.480;2022-07-01T02:26:06;27.53;;;23.50;;
51872;SDS011;52863;52.504;13.480;2022-07-01T02:28:33;24.10;;;21.80;;
51872;SDS011;52863;52.504;13.480;2022-07-01T02:31:01;25.20;;;22.10;;
51872;SDS011;52863;52.504;13.480;2022-07-01T02:33:28;25.23;;;22.57;;
51872;SDS011;52863;52.504;13.480;2022-07-01T02:35:55;25.00;;;22.53;;
51872;SDS011;52863;52.504;13.480;2022-07-01T02:38:22;25.43;;;22.97;;
51872;SDS011;52863;52.504;13.480;2022-07-01T02:40:49;26.83;;;22.63;;
51872;SDS011;52863;52.504;13.480;2022-07-01T02:43:15;25.33;;;22.10;;
51872;SDS011;52863;52.504;13.480;2022-07-01T02:45:43;26.33;;;23.63;;
51872;SDS011;52863;52.504;13.480;2022-07-01T02:48:10;25.67;;;22.87;;
51872;SDS011;52863;52.504;13.480;2022-07-01T02:50:37;26.53;;;23.73;;
51872;SDS011;52863;52.504;13.480;2022-07-01T02:53:04;27.00;;;24.20;;
51872;SDS011;52863;52.504;13.480;2022-07-01T02:55:31;27.90;;;24.00;;
51872;SDS011;52863;52.504;13.480;2022-07-01T02:57:58;27.43;;;24.23;;
51872;SDS011;52863;52.504;13.480;2022-07-01T03:00:25;27.40;;;24.60;;
51872;SDS011;52863;52.504;13.480;2022-07-01T03:02:55;27.47;;;24.67;;
51872;SDS011;52863;52.504;13.480;2022-07-01T03:05:30;27.40;;;24.50;;
51872;SDS011;52863;52.504;13.480;2022-07-01T03:07:57;26.33;;;23.73;;
51872;SDS011;52863;52.504;13.480;2022-07-01T03:10:24;27.77;;;24.77;;
51872;SDS011;52863;52.504;13.480;2022-07-01T03:12:54;28.40;;;25.50;;
51872;SDS011;52863;52.504;13.480;2022-07-01T03:15:24;27.40;;;24.47;;
51872;SDS011;52863;52.504;13.480;2022-07-01T03:17:51;25.70;;;23.00;;
51872;SDS011;52863;52.504;13.480;2022-07-01T03:20:18;27.77;;;24.97;;
51872;SDS011;52863;52.504;13.480;2022-07-01T03:22:45;27.97;;;25.07;;
51872;SDS011;52863;52.504;13.480;2022-07-01T03:25:13;28.70;;;25.93;;
51872;SDS011;52863;52.504;13.480;2022-07-01T03:27:40;26.63;;;23.87;;
51872;SDS011;52863;52.504;13.480;2022-07-01T03:30:10;30.13;;;26.93;;
51872;SDS011;52863;52.504;13.480;2022-07-01T03:32:38;27.97;;;25.13;;
51872;SDS011;52863;52.504;13.480;2022-07-01T03:35:05;27.47;;;24.67;;
51872;SDS011;52863;52.504;13.480;2022-07-01T03:37:49;27.57;;;24.57;;
51872;SDS011;52863;52.504;13.480;2022-07-01T03:40:16;29.93;;;24.93;;
51872;SDS011;52863;52.504;13.480;2022-07-01T03:42:43;27.57;;;24.90;;
51872;SDS011;52863;52.504;13.480;2022-07-01T03:45:10;27.67;;;24.63;;
51872;SDS011;52863;52.504;13.480;2022-07-01T03:47:37;29.37;;;26.27;;
51872;SDS011;52863;52.504;13.480;2022-07-01T03:50:04;26.30;;;23.70;;
51872;SDS011;52863;52.504;13.480;2022-07-01T03:52:32;26.77;;;23.97;;
51872;SDS011;52863;52.504;13.480;2022-07-01T03:55:00;25.50;;;23.00;;
51872;SDS011;52863;52.504;13.480;2022-07-01T03:57:26;26.63;;;23.13;;
51872;SDS011;52863;52.504;13.480;2022-07-01T03:59:53;26.47;;;23.73;;
51872;SDS011;52863;52.504;13.480;2022-07-01T04:02:20;28.10;;;24.90;;
51872;SDS011;52863;52.504;13.480;2022-07-01T04:04:47;27.63;;;23.73;;
51872;SDS011;52863;52.504;13.480;2022-07-01T04:07:13;27.57;;;23.83;;
51872;SDS011;52863;52.504;13.480;2022-07-01T04:09:41;27.93;;;24.83;;
51872;SDS011;52863;52.504;13.480;2022-07-01T04:12:09;27.43;;;24.50;;
51872;SDS011;52863;52.504;13.480;2022-07-01T04:14:38;26.13;;;23.53;;
51872;SDS011;52863;52.504;13.480;2022-07-01T04:17:06;25.90;;;23.10;;
51872;SDS011;52863;52.504;13.480;2022-07-01T04:19:33;24.87;;;22.37;;
51872;SDS011;52863;52.504;13.480;2022-07-01T04:22:01;26.27;;;23.60;;
51872;SDS011;52863;52.504;13.480;2022-07-01T04:24:47;24.00;;;21.50;;
51872;SDS011;52863;52.504;13.480;2022-07-01T04:27:14;23.77;;;21.47;;
51872;SDS011;52863;52.504;13.480;2022-07-01T04:29:41;24.07;;;21.53;;
51872;SDS011;52863;52.504;13.480;2022-07-01T04:32:08;22.70;;;20.40;;
51872;SDS011;52863;52.504;13.480;2022-07-01T04:34:35;23.87;;;19.90;;
51872;SDS011;52863;52.504;13.480;2022-07-01T04:37:04;21.17;;;18.93;;
51872;SDS011;52863;52.504;13.480;2022-07-01T04:39:31;22.43;;;20.10;;
51872;SDS011;52863;52.504;13.480;2022-07-01T04:41:57;21.57;;;19.50;;
51872;SDS011;52863;52.504;13.480;2022-07-01T04:44:28;22.20;;;19.80;;
51872;SDS011;52863;52.504;13.480;2022-07-01T04:46:55;22.57;;;20.27;;
51872;SDS011;52863;52.504;13.480;2022-07-01T04:49:24;22.60;;;19.53;;
51872;SDS011;52863;52.504;13.480;2022-07-01T04:51:51;22.53;;;20.23;;
51872;SDS011;52863;52.504;13.480;2022-07-01T04:54:18;21.90;;;19.73;;
51872;SDS011;52863;52.504;13.480;2022-07-01T04:56:45;23.17;;;20.83;;
51872;SDS011;52863;52.504;13.480;2022-07-01T04:59:12;21.83;;;19.57;;
51872;SDS011;52863;52.504;13.480;2022-07-01T05:01:40;22.83;;;20.40;;
51872;SDS011;52863;52.504;13.480;2022-07-01T05:04:07;22.33;;;20.07;;
51872;SDS011;52863;52.504;13.480;2022-07-01T05:06:34;22.73;;;20.23;;
51872;SDS011;52863;52.504;13.480;2022-07-01T05:09:01;21.77;;;19.67;;
51872;SDS011;52863;52.504;13.480;2022-07-01T05:11:28;22.27;;;20.07;;
51872;SDS011;52863;52.504;13.480;2022-07-01T05:13:55;22.13;;;19.63;;
51872;SDS011;52863;52.504;13.480;2022-07-01T05:16:24;23.07;;;20.67;;
51872;SDS011;52863;52.504;13.480;2022-07-01T05:18:54;22.07;;;19.90;;
51872;SDS011;52863;52.504;13.480;2022-07-01T05:21:39;23.03;;;19.10;;
51872;SDS011;52863;52.504;13.480;2022-07-01T05:24:25;20.83;;;18.77;;
51872;SDS011;52863;52.504;13.480;2022-07-01T05:26:57;21.03;;;19.07;;
51872;SDS011;52863;52.504;13.480;2022-07-01T05:29:28;22.33;;;20.03;;
51872;SDS011;52863;52.504;13.480;2022-07-01T05:31:55;20.73;;;18.57;;
51872;SDS011;52863;52.504;13.480;2022-07-01T05:34:23;21.00;;;19.00;;
51872;SDS011;52863;52.504;13.480;2022-07-01T05:36:49;21.07;;;18.90;;
51872;SDS011;52863;52.504;13.480;2022-07-01T05:39:16;20.80;;;18.20;;
51872;SDS011;52863;52.504;13.480;2022-07-01T05:41:45;19.43;;;17.37;;
51872;SDS011;52863;52.504;13.480;2022-07-01T05:44:12;18.70;;;16.93;;
51872;SDS011;52863;52.504;13.480;2022-07-01T05:46:39;19.13;;;17.17;;
51872;SDS011;52863;52.504;13.480;2022-07-01T05:49:06;19.20;;;17.30;;
51872;SDS011;52863;52.504;13.480;2022-07-01T05:51:34;18.73;;;16.23;;
51872;SDS011;52863;52.504;13.480;2022-07-01T05:54:00;16.63;;;14.87;;
51872;SDS011;52863;52.504;13.480;2022-07-01T05:56:27;16.63;;;14.65;;
51872;SDS011;52863;52.504;13.480;2022-07-01T05:58:54;19.23;;;14.18;;
51872;SDS011;52863;52.504;13.480;2022-07-01T06:01:21;16.60;;;14.77;;
51872;SDS011;52863;52.504;13.480;2022-07-01T06:03:48;16.55;;;14.45;;
51872;SDS011;52863;52.504;13.480;2022-07-01T06:06:15;17.17;;;15.38;;
51872;SDS011;52863;52.504;13.480;2022-07-01T06:08:44;16.60;;;14.90;;
51872;SDS011;52863;52.504;13.480;2022-07-01T06:11:11;17.55;;;15.77;;
51872;SDS011;52863;52.504;13.480;2022-07-01T06:13:38;17.30;;;15.10;;
51872;SDS011;52863;52.504;13.480;2022-07-01T06:16:10;16.53;;;14.93;;
51872;SDS011;52863;52.504;13.480;2022-07-01T06:18:56;16.97;;;15.17;;
51872;SDS011;52863;52.504;13.480;2022-07-01T06:21:29;16.97;;;15.17;;
51872;SDS011;52863;52.504;13.480;2022-07-01T06:23:57;14.95;;;13.35;;
51872;SDS011;52863;52.504;13.480;2022-07-01T06:26:26;14.32;;;12.30;;
51872;SDS011;52863;52.504;13.480;2022-07-01T06:28:52;14.93;;;13.50;;
51872;SDS011;52863;52.504;13.480;2022-07-01T06:31:19;14.85;;;13.50;;
51872;SDS011;52863;52.504;13.480;2022-07-01T06:33:46;14.55;;;13.10;;
51872;SDS011;52863;52.504;13.480;2022-07-01T06:36:13;16.63;;;13.75;;
51872;SDS011;52863;52.504;13.480;2022-07-01T06:38:40;16.25;;;14.02;;
51872;SDS011;52863;52.504;13.480;2022-07-01T06:41:07;16.42;;;14.02;;
51872;SDS011;52863;52.504;13.480;2022-07-01T06:43:52;16.30;;;14.60;;
51872;SDS011;52863;52.504;13.480;2022-07-01T06:46:19;19.47;;;15.60;;
51872;SDS011;52863;52.504;13.480;2022-07-01T06:48:46;16.55;;;14.70;;
51872;SDS011;52863;52.504;13.480;2022-07-01T06:51:13;19.30;;;17.30;;
51872;SDS011;52863;52.504;13.480;2022-07-01T06:53:40;17.13;;;14.80;;
51872;SDS011;52863;52.504;13.480;2022-07-01T06:56:07;17.43;;;15.20;;
51872;SDS011;52863;52.504;13.480;2022-07-01T06:58:34;18.20;;;16.50;;
51872;SDS011;52863;52.504;13.480;2022-07-01T07:01:01;19.10;;;17.23;;
51872;SDS011;52863;52.504;13.480;2022-07-01T07:03:28;18.07;;;16.37;;
51872;SDS011;52863;52.504;13.480;2022-07-01T07:05:55;18.17;;;15.50;;
51872;SDS011;52863;52.504;13.480;2022-07-01T07:08:22;22.43;;;17.07;;
51872;SDS011;52863;52.504;13.480;2022-07-01T07:10:48;19.30;;;17.00;;
51872;SDS011;52863;52.504;13.480;2022-07-01T07:13:18;18.70;;;16.77;;
51872;SDS011;52863;52.504;13.480;2022-07-01T07:15:46;18.67;;;15.13;;
51872;SDS011;52863;52.504;13.480;2022-07-01T07:18:14;17.53;;;15.83;;
51872;SDS011;52863;52.504;13.480;2022-07-01T07:20:42;19.63;;;15.88;;
51872;SDS011;52863;52.504;13.480;2022-07-01T07:23:10;16.73;;;15.07;;
51872;SDS011;52863;52.504;13.480;2022-07-01T07:25:36;17.15;;;15.50;;
51872;SDS011;52863;52.504;13.480;2022-07-01T07:28:04;16.10;;;14.50;;
51872;SDS011;52863;52.504;13.480;2022-07-01T07:30:31;15.80;;;14.30;;
51872;SDS011;52863;52.504;13.480;2022-07-01T07:32:58;15.70;;;13.45;;
51872;SDS011;52863;52.504;13.480;2022-07-01T07:35:27;18.08;;;14.80;;
51872;SDS011;52863;52.504;13.480;2022-07-01T07:37:54;17.58;;;13.35;;
51872;SDS011;52863;52.504;13.480;2022-07-01T07:40:21;16.65;;;14.40;;
51872;SDS011;52863;52.504;13.480;2022-07-01T07:42:48;15.27;;;14.05;;
51872;SDS011;52863;52.504;13.480;2022-07-01T07:45:22;16.60;;;14.98;;
51872;SDS011;52863;52.504;13.480;2022-07-01T07:47:51;16.23;;;14.52;;
51872;SDS011;52863;52.504;13.480;2022-07-01T07:50:21;15.23;;;13.77;;
51872;SDS011;52863;52.504;13.480;2022-07-01T07:52:48;15.40;;;13.80;;
51872;SDS011;52863;52.504;13.480;2022-07-01T07:55:15;14.85;;;13.20;;
51872;SDS011;52863;52.504;13.480;2022-07-01T07:57:43;12.75;;;11.55;;
51872;SDS011;52863;52.504;13.480;2022-07-01T08:00:13;12.38;;;11.20;;
51872;SDS011;52863;52.504;13.480;2022-07-01T08:02:42;16.30;;;12.32;;
51872;SDS011;52863;52.504;13.480;2022-07-01T08:05:10;14.77;;;12.98;;
51872;SDS011;52863;52.504;13.480;2022-07-01T08:07:41;13.48;;;12.02;;
51872;SDS011;52863;52.504;13.480;2022-07-01T08:10:10;13.73;;;12.10;;
51872;SDS011;52863;52.504;13.480;2022-07-01T08:12:39;13.20;;;11.57;;
51872;SDS011;52863;52.504;13.480;2022-07-01T08:15:06;13.35;;;11.50;;
51872;SDS011;52863;52.504;13.480;2022-07-01T08:17:34;12.80;;;11.60;;
51872;SDS011;52863;52.504;13.480;2022-07-01T08:20:01;13.10;;;11.90;;
51872;SDS011;52863;52.504;13.480;2022-07-01T08:22:32;13.07;;;11.77;;
51872;SDS011;52863;52.504;13.480;2022-07-01T08:24:59;15.97;;;12.77;;
51872;SDS011;52863;52.504;13.480;2022-07-01T08:27:30;17.93;;;12.40;;
51872;SDS011;52863;52.504;13.480;2022-07-01T08:29:57;15.73;;;14.30;;
51872;SDS011;52863;52.504;13.480;2022-07-01T08:32:27;14.50;;;13.10;;
51872;SDS011;52863;52.504;13.480;2022-07-01T08:34:54;14.00;;;12.70;;
51872;SDS011;52863;52.504;13.480;2022-07-01T08:37:21;15.47;;;12.07;;
51872;SDS011;52863;52.504;13.480;2022-07-01T08:39:49;14.27;;;12.70;;
51872;SDS011;52863;52.504;13.480;2022-07-01T08:42:16;15.07;;;11.37;;
51872;SDS011;52863;52.504;13.480;2022-07-01T08:44:43;13.60;;;12.30;;
51872;SDS011;52863;52.504;13.480;2022-07-01T08:47:10;15.50;;;12.20;;
51872;SDS011;52863;52.504;13.480;2022-07-01T08:49:38;13.23;;;11.87;;
51872;SDS011;52863;52.504;13.480;2022-07-01T08:52:04;14.33;;;11.77;;
51872;SDS011;52863;52.504;13.480;2022-07-01T08:54:33;16.33;;;12.13;;
51872;SDS011;52863;52.504;13.480;2022-07-01T08:57:01;12.03;;;10.93;;
51872;SDS011;52863;52.504;13.480;2022-07-01T08:59:28;12.97;;;11.77;;
51872;SDS011;52863;52.504;13.480;2022-07-01T09:01:56;14.33;;;11.67;;
51872;SDS011;52863;52.504;13.480;2022-07-01T09:04:25;13.67;;;11.10;;
51872;SDS011;52863;52.504;13.480;2022-07-01T09:07:00;12.67;;;10.57;;
51872;SDS011;52863;52.504;13.480;2022-07-01T09:09:28;12.07;;;10.43;;
51872;SDS011;52863;52.504;13.480;2022-07-01T09:11:59;13.00;;;11.70;;
51872;SDS011;52863;52.504;13.480;2022-07-01T09:14:29;13.30;;;11.97;;
51872;SDS011;52863;52.504;13.480;2022-07-01T09:16:57;13.10;;;11.77;;
51872;SDS011;52863;52.504;13.480;2022-07-01T09:19:26;13.43;;;12.13;;
51872;SDS011;52863;52.504;13.480;2022-07-01T09:21:54;13.07;;;11.83;;
51872;SDS011;52863;52.504;13.480;2022-07-01T09:24:26;14.57;;;11.63;;
51872;SDS011;52863;52.504;13.480;2022-07-01T09:26:56;13.77;;;12.47;;
51872;SDS011;52863;52.504;13.480;2022-07-01T09:29:27;14.17;;;12.63;;
51872;SDS011;52863;52.504;13.480;2022-07-01T09:31:57;14.30;;;12.43;;
51872;SDS011;52863;52.504;13.480;2022-07-01T09:34:24;14.07;;;12.77;;
51872;SDS011;52863;52.504;13.480;2022-07-01T09:36:52;12.43;;;11.17;;
51872;SDS011;52863;52.504;13.480;2022-07-01T09:39:20;12.03;;;6.33;;
51872;SDS011;52863;52.504;13.480;2022-07-01T09:42:03;7.23;;;4.10;;
51872;SDS011;52863;52.504;13.480;2022-07-01T09:44:31;8.30;;;3.30;;
51872;SDS011;52863;52.504;13.480;2022-07-01T09:46:58;5.73;;;3.00;;
51872;SDS011;52863;52.504;13.480;2022-07-01T09:49:27;9.07;;;2.90;;
51872;SDS011;52863;52.504;13.480;2022-07-01T09:51:54;7.13;;;2.37;;
51872;SDS011;52863;52.504;13.480;2022-07-01T09:54:21;6.83;;;2.30;;
51872;SDS011;52863;52.504;13.480;2022-07-01T09:56:48;4.03;;;1.73;;
51872;SDS011;52863;52.504;13.480;2022-07-01T09:59:16;2.60;;;1.60;;
51872;SDS011;52863;52.504;13.480;2022-07-01T10:01:44;1.40;;;1.27;;
51872;SDS011;52863;52.504;13.480;2022-07-01T10:04:12;2.33;;;1.30;;
51872;SDS011;52863;52.504;13.480;2022-07-01T10:06:46;2.00;;;1.00;;
51872;SDS011;52863;52.504;13.480;2022-07-01T10:09:24;5.80;;;1.27;;
51872;SDS011;52863;52.504;13.480;2022-07-01T10:12:12;2.97;;;1.20;;
51872;SDS011;52863;52.504;13.480;2022-07-01T10:14:54;4.90;;;1.20;;
51872;SDS011;52863;52.504;13.480;2022-07-01T10:17:26;1.23;;;1.10;;
51872;SDS011;52863;52.504;13.480;2022-07-01T10:19:56;4.63;;;1.30;;
51872;SDS011;52863;52.504;13.480;2022-07-01T10:22:25;2.87;;;1.20;;
51872;SDS011;52863;52.504;13.480;2022-07-01T10:28:12;4.43;;;1.17;;
51872;SDS011;52863;52.504;13.480;2022-07-01T10:30:55;2.80;;;2.10;;
51872;SDS011;52863;52.504;13.480;2022-07-01T10:33:38;5.53;;;1.30;;
51872;SDS011;52863;52.504;13.480;2022-07-01T10:36:18;2.30;;;1.20;;
51872;SDS011;52863;52.504;13.480;2022-07-01T10:39:17;1.30;;;1.20;;
51872;SDS011;52863;52.504;13.480;2022-07-01T10:41:57;2.00;;;1.27;;
51872;SDS011;52863;52.504;13.480;2022-07-01T10:47:32;2.20;;;1.50;;
51872;SDS011;52863;52.504;13.480;2022-07-01T10:50:00;2.43;;;1.60;;
51872;SDS011;52863;52.504;13.480;2022-07-01T10:52:30;2.10;;;1.40;;
51872;SDS011;52863;52.504;13.480;2022-07-01T10:54:59;2.63;;;1.30;;
51872;SDS011;52863;52.504;13.480;2022-07-01T10:57:29;2.13;;;1.30;;
51872;SDS011;52863;52.504;13.480;2022-07-01T11:03:13;2.80;;;1.27;;
51872;SDS011;52863;52.504;13.480;2022-07-01T11:05:44;4.80;;;1.33;;
51872;SDS011;52863;52.504;13.480;2022-07-01T11:08:14;1.43;;;1.20;;
51872;SDS011;52863;52.504;13.480;2022-07-01T11:10:51;3.77;;;1.00;;
51872;SDS011;52863;52.504;13.480;2022-07-01T11:15:55;1.20;;;0.70;;
51872;SDS011;52863;52.504;13.480;2022-07-01T11:18:22;1.70;;;0.60;;
51872;SDS011;52863;52.504;13.480;2022-07-01T11:20:50;2.33;;;0.60;;
51872;SDS011;52863;52.504;13.480;2022-07-01T11:23:17;3.60;;;0.60;;
51872;SDS011;52863;52.504;13.480;2022-07-01T11:25:46;2.53;;;0.90;;
51872;SDS011;52863;52.504;13.480;2022-07-01T11:28:13;3.63;;;0.60;;
51872;SDS011;52863;52.504;13.480;2022-07-01T11:30:40;1.80;;;0.63;;
51872;SDS011;52863;52.504;13.480;2022-07-01T11:33:07;1.23;;;0.60;;
51872;SDS011;52863;52.504;13.480;2022-07-01T11:35:35;2.00;;;0.70;;
51872;SDS011;52863;52.504;13.480;2022-07-01T11:38:21;1.73;;;0.83;;
51872;SDS011;52863;52.504;13.480;2022-07-01T11:41:07;2.00;;;0.60;;
51872;SDS011;52863;52.504;13.480;2022-07-01T11:43:36;1.60;;;0.73;;
51872;SDS011;52863;52.504;13.480;2022-07-01T11:46:05;1.63;;;0.63;;
51872;SDS011;52863;52.504;13.480;2022-07-01T11:48:37;1.10;;;0.57;;
51872;SDS011;52863;52.504;13.480;2022-07-01T11:51:05;2.37;;;0.60;;
51872;SDS011;52863;52.504;13.480;2022-07-01T11:53:36;2.90;;;1.07;;
51872;SDS011;52863;52.504;13.480;2022-07-01T11:56:03;2.50;;;0.80;;
51872;SDS011;52863;52.504;13.480;2022-07-01T12:01:26;1.27;;;0.80;;
51872;SDS011;52863;52.504;13.480;2022-07-01T12:03:55;1.03;;;0.77;;
51872;SDS011;52863;52.504;13.480;2022-07-01T12:06:23;2.03;;;0.90;;
51872;SDS011;52863;52.504;13.480;2022-07-01T12:08:50;3.27;;;0.80;;
51872;SDS011;52863;52.504;13.480;2022-07-01T12:11:19;1.87;;;0.80;;
51872;SDS011;52863;52.504;13.480;2022-07-01T12:13:48;0.60;;;0.50;;
51872;SDS011;52863;52.504;13.480;2022-07-01T12:16:15;1.10;;;0.80;;
51872;SDS011;52863;52.504;13.480;2022-07-01T12:18:54;2.40;;;1.23;;
51872;SDS011;52863;52.504;13.480;2022-07-01T12:21:22;2.53;;;1.03;;
51872;SDS011;52863;52.504;13.480;2022-07-01T12:24:03;5.17;;;1.93;;
51872;SDS011;52863;52.504;13.480;2022-07-01T12:26:31;2.47;;;1.83;;
51872;SDS011;52863;52.504;13.480;2022-07-01T12:28:58;2.00;;;1.90;;
51872;SDS011;52863;52.504;13.480;2022-07-01T12:31:25;2.57;;;2.07;;
51872;SDS011;52863;52.504;13.480;2022-07-01T12:33:52;4.60;;;2.53;;
51872;SDS011;52863;52.504;13.480;2022-07-01T12:36:19;2.37;;;2.10;;
51872;SDS011;52863;52.504;13.480;2022-07-01T12:38:46;2.77;;;2.13;;
51872;SDS011;52863;52.504;13.480;2022-07-01T12:41:29;4.00;;;2.33;;
51872;SDS011;52863;52.504;13.480;2022-07-01T12:44:05;2.93;;;2.47;;
51872;SDS011;52863;52.504;13.480;2022-07-01T12:46:32;5.10;;;2.50;;
51872;SDS011;52863;52.504;13.480;2022-07-01T12:48:59;3.97;;;2.73;;
51872;SDS011;52863;52.504;13.480;2022-07-01T12:51:30;4.00;;;3.17;;
51872;SDS011;52863;52.504;13.480;2022-07-01T12:53:57;3.53;;;2.90;;
51872;SDS011;52863;52.504;13.480;2022-07-01T12:56:26;3.83;;;2.77;;
51872;SDS011;52863;52.504;13.480;2022-07-01T12:58:55;3.30;;;2.57;;
51872;SDS011;52863;52.504;13.480;2022-07-01T13:01:23;3.27;;;2.80;;
51872;SDS011;52863;52.504;13.480;2022-07-01T13:03:50;5.07;;;2.50;;
51872;SDS011;52863;52.504;13.480;2022-07-01T13:06:17;3.40;;;3.07;;
51872;SDS011;52863;52.504;13.480;2022-07-01T13:08:44;3.10;;;2.80;;
51872;SDS011;52863;52.504;13.480;2022-07-01T13:11:11;4.03;;;2.60;;
51872;SDS011;52863;52.504;13.480;2022-07-01T13:13:37;3.00;;;2.70;;
51872;SDS011;52863;52.504;13.480;2022-07-01T13:16:05;4.83;;;3.17;;
51872;SDS011;52863;52.504;13.480;2022-07-01T13:18:32;3.57;;;2.93;;
51872;SDS011;52863;52.504;13.480;2022-07-01T13:20:59;2.80;;;2.60;;
51872;SDS011;52863;52.504;13.480;2022-07-01T13:23:26;3.33;;;3.00;;
51872;SDS011;52863;52.504;13.480;2022-07-01T13:25:52;3.10;;;2.80;;
51872;SDS011;52863;52.504;13.480;2022-07-01T13:28:19;4.03;;;3.30;;
51872;SDS011;52863;52.504;13.480;2022-07-01T13:30:46;5.20;;;3.47;;
51872;SDS011;52863;52.504;13.480;2022-07-01T13:33:13;4.07;;;2.87;;
51872;SDS011;52863;52.504;13.480;2022-07-01T13:35:40;4.03;;;3.27;;
51872;SDS011;52863;52.504;13.480;2022-07-01T13:38:07;4.40;;;3.37;;
51872;SDS011;52863;52.504;13.480;2022-07-01T13:40:34;3.80;;;3.20;;
51872;SDS011;52863;52.504;13.480;2022-07-01T13:43:01;3.30;;;3.00;;
51872;SDS011;52863;52.504;13.480;2022-07-01T13:45:27;4.50;;;3.10;;
51872;SDS011;52863;52.504;13.480;2022-07-01T13:47:54;7.00;;;2.90;;
51872;SDS011;52863;52.504;13.480;2022-07-01T13:50:22;4.97;;;3.03;;
51872;SDS011;52863;52.504;13.480;2022-07-01T13:52:49;4.17;;;3.10;;
51872;SDS011;52863;52.504;13.480;2022-07-01T13:55:16;4.30;;;3.17;;
51872;SDS011;52863;52.504;13.480;2022-07-01T13:57:44;3.50;;;3.20;;
51872;SDS011;52863;52.504;13.480;2022-07-01T14:00:12;3.30;;;3.00;;
51872;SDS011;52863;52.504;13.480;2022-07-01T14:02:39;3.20;;;2.90;;
51872;SDS011;52863;52.504;13.480;2022-07-01T14:05:06;3.00;;;2.80;;
51872;SDS011;52863;52.504;13.480;2022-07-01T14:07:34;3.90;;;3.00;;
51872;SDS011;52863;52.504;13.480;2022-07-01T14:10:01;3.17;;;2.60;;
51872;SDS011;52863;52.504;13.480;2022-07-01T14:12:29;3.43;;;3.13;;
51872;SDS011;52863;52.504;13.480;2022-07-01T14:14:55;2.57;;;2.37;;
51872;SDS011;52863;52.504;13.480;2022-07-01T14:17:22;2.67;;;2.47;;
51872;SDS011;52863;52.504;13.480;2022-07-01T14:19:49;2.60;;;2.40;;
51872;SDS011;52863;52.504;13.480;2022-07-01T14:22:16;3.37;;;2.60;;
51872;SDS011;52863;52.504;13.480;2022-07-01T14:24:43;2.70;;;2.50;;
51872;SDS011;52863;52.504;13.480;2022-07-01T14:27:10;3.53;;;2.70;;
51872;SDS011;52863;52.504;13.480;2022-07-01T14:29:37;2.80;;;2.60;;
51872;SDS011;52863;52.504;13.480;2022-07-01T14:32:04;2.97;;;2.40;;
51872;SDS011;52863;52.504;13.480;2022-07-01T14:34:32;2.97;;;2.53;;
51872;SDS011;52863;52.504;13.480;2022-07-01T14:36:59;3.33;;;2.07;;
51872;SDS011;52863;52.504;13.480;2022-07-01T14:39:25;2.87;;;2.60;;